Terminal Aerodrome Forecast
Issued by NWS Shreveport, LA

Home | Current Version | Previous Version | Text Only | Print | Product List | Glossary On
Versions: 1 2 3 4 5 6 7 8 9 10 11 12 13 14 15 16 17 18 19 20 21 22 23
000
FTUS44 KSHV 200539
TAFGGG
TAF
KGGG 200539Z 2006/2106 16012G20KT P6SM BKN025 OVC060
     FM201500 17015G25KT P6SM BKN020 OVC030
     FM202000 18015G25KT P6SM VCSH BKN020 OVC030
     FM210400 18012G20KT 3SM TSRA BKN015 OVC040CB=

USA.gov is the U.S. government's official web portal to all federal, state and local government web resources and services.